^^
Station Historical Data
 
Daily Summary for April 20, 2018 Units:  Both    English   Metric
« Previous Day
Next Day »
Daily Weekly Monthly Yearly Custom
  Current: High: Low: Average:
Temperature: 62.3 °F /  16.8 °C TemperatureF °F /  -17.8 °C 53.1 °F /  11.7 °C 67.2 °F /  19.6 °C
Dew Point: 33.5 °F /  0.8 °C DewpointF °F /  -17.8 °C 31.4 °F /  -0.3 °C 33.4 °F /  0.8 °C
Humidity: 34% Humidity% 18% 30%
Wind Speed: 0.0mph /  0km/h WindSpeedMPHmph /  0km/h - 1mph /  1.6km/h
Wind Gust: 0.0mph /  0km/h WindSpeedGustMPHmph /  0km/h - -
WindCalm - - East
Pressure: 29.94 in /  1013.8 hPa PressureIn in /  0 hPa 29.80 in /  1009 hPa -
Precipitation: 0.00 in /  0 mm      
Historical Graphs
 
 
Tabular Data for April 20, 2018
Time Temperature Dew Point Pressure Wind Wind Speed Wind Gust Humidity Rainfall Rate (Hourly) solar Conditions
TemperatureF °F /  -17.8 °C DewpointF °F /  -17.8 °C PressureInin /  0hPa Calm     Humidity% HourlyPrecipInin /  0mm SoftwareType W/m2 Conditions
00:00 60.6 °F /  15.9 °C 33.5 °F /  0.8 °C 29.80in /  1009hPa Calm     36% 0.00in /  0mm WeatherDisplay:10.37 W/m2 CLR
00:05 60.4 °F /  15.8 °C 33.3 °F /  0.7 °C 29.80in /  1009hPa Calm     36% 0.00in /  0mm WeatherDisplay:10.37 W/m2 CLR
00:10 60.3 °F /  15.7 °C 33.2 °F /  0.7 °C 29.80in /  1009hPa Calm     36% 0.00in /  0mm WeatherDisplay:10.37 W/m2 CLR
00:15 60.0 °F /  15.6 °C 32.9 °F /  0.5 °C 29.80in /  1009hPa Calm     36% 0.00in /  0mm WeatherDisplay:10.37 W/m2 CLR
00:20 59.8 °F /  15.4 °C 32.8 °F /  0.4 °C 29.80in /  1009hPa Calm     36% 0.00in /  0mm WeatherDisplay:10.37 W/m2 CLR
00:25 59.6 °F /  15.3 °C 32.6 °F /  0.3 °C 29.80in /  1009hPa Calm     36% 0.00in /  0mm WeatherDisplay:10.37 W/m2 CLR
00:30 59.3 °F /  15.2 °C 32.4 °F /  0.2 °C 29.80in /  1009hPa Calm     36% 0.00in /  0mm WeatherDisplay:10.37 W/m2 CLR
00:35 59.0 °F /  15 °C 32.7 °F /  0.4 °C 29.80in /  1009hPa Calm     37% 0.00in /  0mm WeatherDisplay:10.37 W/m2 CLR
00:40 58.8 °F /  14.9 °C 32.6 °F /  0.3 °C 29.80in /  1009hPa Calm     37% 0.00in /  0mm WeatherDisplay:10.37 W/m2 CLR
00:45 58.3 °F /  14.6 °C 32.7 °F /  0.4 °C 29.81in /  1009.4hPa Calm     38% 0.00in /  0mm WeatherDisplay:10.37 W/m2 CLR
00:50 57.9 °F /  14.4 °C 32.4 °F /  0.2 °C 29.81in /  1009.4hPa Calm     38% 0.00in /  0mm WeatherDisplay:10.37 W/m2 CLR
00:54 57.8 °F /  14.3 °C 32.3 °F /  0.2 °C 29.81in /  1009.4hPa Calm     38% 0.00in /  0mm WeatherDisplay:10.37 W/m2 CLR
01:00 57.4 °F /  14.1 °C 32.6 °F /  0.3 °C 29.81in /  1009.4hPa Calm     39% 0.00in /  0mm WeatherDisplay:10.37 W/m2 CLR
01:05 56.9 °F /  13.8 °C 32.8 °F /  0.4 °C 29.81in /  1009.4hPa Calm     40% 0.00in /  0mm WeatherDisplay:10.37 W/m2 CLR
01:10 56.3 °F /  13.5 °C 32.9 °F /  0.5 °C 29.81in /  1009.4hPa Calm     41% 0.00in /  0mm WeatherDisplay:10.37 W/m2 CLR
01:15 55.8 °F /  13.2 °C 33.0 °F /  0.6 °C 29.82in /  1009.7hPa Calm     42% 0.00in /  0mm WeatherDisplay:10.37 W/m2 CLR
01:20 55.5 °F /  13.1 °C 32.8 °F /  0.4 °C 29.82in /  1009.7hPa Calm     42% 0.00in /  0mm WeatherDisplay:10.37 W/m2 CLR
01:25 55.8 °F /  13.2 °C 32.4 °F /  0.2 °C 29.82in /  1009.7hPa Calm     41% 0.00in /  0mm WeatherDisplay:10.37 W/m2 CLR
01:30 56.3 °F /  13.5 °C 32.3 °F /  0.2 °C 29.82in /  1009.7hPa Calm     40% 0.00in /  0mm WeatherDisplay:10.37 W/m2 CLR
01:35 56.5 °F /  13.6 °C 31.9 °F /  -0.1 °C 29.82in /  1009.7hPa Calm     39% 0.00in /  0mm WeatherDisplay:10.37 W/m2 CLR
01:39 57.1 °F /  13.9 °C 31.7 °F /  -0.2 °C 29.82in /  1009.7hPa Calm     38% 0.00in /  0mm WeatherDisplay:10.37 W/m2 CLR
01:45 57.7 °F /  14.3 °C 31.6 °F /  -0.2 °C 29.82in /  1009.7hPa Calm     37% 0.00in /  0mm WeatherDisplay:10.37 W/m2 CLR
01:50 58.0 °F /  14.4 °C 31.8 °F /  -0.1 °C 29.82in /  1009.7hPa Calm     37% 0.00in /  0mm WeatherDisplay:10.37 W/m2 CLR
01:54 58.0 °F /  14.4 °C 31.8 °F /  -0.1 °C 29.82in /  1009.7hPa Calm     37% 0.00in /  0mm WeatherDisplay:10.37 W/m2 CLR
02:00 58.0 °F /  14.4 °C 31.8 °F /  -0.1 °C 29.82in /  1009.7hPa Calm     37% 0.00in /  0mm WeatherDisplay:10.37 W/m2 CLR
02:05 58.0 °F /  14.4 °C 31.9 °F /  -0.1 °C 29.82in /  1009.7hPa Calm     37% 0.00in /  0mm WeatherDisplay:10.37 W/m2 CLR
02:10 58.0 °F /  14.4 °C 31.8 °F /  -0.1 °C 29.82in /  1009.7hPa Calm     37% 0.00in /  0mm WeatherDisplay:10.37 W/m2 CLR
02:15 58.0 °F /  14.4 °C 31.8 °F /  -0.1 °C 29.83in /  1010hPa Calm     37% 0.00in /  0mm WeatherDisplay:10.37 W/m2 CLR
02:20 58.0 °F /  14.4 °C 31.8 °F /  -0.1 °C 29.83in /  1010hPa Calm     37% 0.00in /  0mm WeatherDisplay:10.37 W/m2 CLR
02:24 57.9 °F /  14.4 °C 31.8 °F /  -0.1 °C 29.83in /  1010hPa Calm     37% 0.00in /  0mm WeatherDisplay:10.37 W/m2 CLR
02:30 57.9 °F /  14.4 °C 31.8 °F /  -0.1 °C 29.83in /  1010hPa Calm     37% 0.00in /  0mm WeatherDisplay:10.37 W/m2 CLR
02:35 57.8 °F /  14.3 °C 32.3 °F /  0.2 °C 29.83in /  1010hPa Calm     38% 0.00in /  0mm WeatherDisplay:10.37 W/m2 CLR
02:40 57.7 °F /  14.3 °C 32.2 °F /  0.1 °C 29.83in /  1010hPa Calm     38% 0.00in /  0mm WeatherDisplay:10.37 W/m2 CLR
02:45 57.5 °F /  14.2 °C 32.1 °F /  0.1 °C 29.83in /  1010hPa Calm     38% 0.00in /  0mm WeatherDisplay:10.37 W/m2 CLR
02:50 57.4 °F /  14.1 °C 32.0 °F /  0 °C 29.83in /  1010hPa Calm     38% 0.00in /  0mm WeatherDisplay:10.37 W/m2 CLR
02:55 57.2 °F /  14 °C 31.8 °F /  -0.1 °C 29.83in /  1010hPa Calm     38% 0.00in /  0mm WeatherDisplay:10.37 W/m2 CLR
03:00 57.0 °F /  13.9 °C 31.6 °F /  -0.2 °C 29.83in /  1010hPa Calm     38% 0.00in /  0mm WeatherDisplay:10.37 W/m2 CLR
03:05 56.8 °F /  13.8 °C 31.5 °F /  -0.3 °C 29.83in /  1010hPa Calm     38% 0.00in /  0mm WeatherDisplay:10.37 W/m2 CLR
03:10 56.7 °F /  13.7 °C 32.0 °F /  0 °C 29.83in /  1010hPa Calm     39% 0.00in /  0mm WeatherDisplay:10.37 W/m2 CLR
03:14 56.6 °F /  13.7 °C 31.9 °F /  -0.1 °C 29.84in /  1010.4hPa Calm     39% 0.00in /  0mm WeatherDisplay:10.37 W/m2 CLR
03:20 56.5 °F /  13.6 °C 31.8 °F /  -0.1 °C 29.84in /  1010.4hPa Calm   12.0mph /  19.3km/h 39% 0.00in /  0mm WeatherDisplay:10.37 W/m2 CLR
03:25 56.4 °F /  13.6 °C 31.7 °F /  -0.2 °C 29.84in /  1010.4hPa Calm   8.0mph /  12.9km/h 39% 0.00in /  0mm WeatherDisplay:10.37 W/m2 CLR
03:30 56.4 °F /  13.6 °C 31.7 °F /  -0.2 °C 29.84in /  1010.4hPa ENE 1.0mph /  1.6km/h 8.0mph /  12.9km/h 39% 0.00in /  0mm WeatherDisplay:10.37 W/m2 CLR
03:35 56.4 °F /  13.6 °C 31.7 °F /  -0.2 °C 29.84in /  1010.4hPa Calm   7.0mph /  11.3km/h 39% 0.00in /  0mm WeatherDisplay:10.37 W/m2 CLR
03:40 56.3 °F /  13.5 °C 31.6 °F /  -0.2 °C 29.84in /  1010.4hPa Calm   7.0mph /  11.3km/h 39% 0.00in /  0mm WeatherDisplay:10.37 W/m2 CLR
03:45 56.1 °F /  13.4 °C 31.4 °F /  -0.3 °C 29.85in /  1010.7hPa Calm   6.0mph /  9.7km/h 39% 0.00in /  0mm WeatherDisplay:10.37 W/m2 CLR
03:55 55.6 °F /  13.1 °C 32.2 °F /  0.1 °C 29.85in /  1010.7hPa Calm     41% 0.00in /  0mm WeatherDisplay:10.37 W/m2 CLR
04:00 55.0 °F /  12.8 °C 32.3 °F /  0.2 °C 29.86in /  1011.1hPa Calm     42% 0.00in /  0mm WeatherDisplay:10.37 W/m2 CLR
04:05 54.6 °F /  12.6 °C 32.5 °F /  0.3 °C 29.86in /  1011.1hPa Calm     43% 0.00in /  0mm WeatherDisplay:10.37 W/m2 CLR
04:10 54.7 °F /  12.6 °C 32.0 °F /  0 °C 29.86in /  1011.1hPa ENE 2.0mph /  3.2km/h 8.0mph /  12.9km/h 42% 0.00in /  0mm WeatherDisplay:10.37 W/m2 CLR
04:15 55.0 °F /  12.8 °C 32.3 °F /  0.2 °C 29.87in /  1011.4hPa ENE 5.0mph /  8km/h 12.0mph /  19.3km/h 42% 0.00in /  0mm WeatherDisplay:10.37 W/m2 CLR
04:20 55.1 °F /  12.8 °C 31.8 °F /  -0.1 °C 29.87in /  1011.4hPa ENE 2.0mph /  3.2km/h 12.0mph /  19.3km/h 41% 0.00in /  0mm WeatherDisplay:10.37 W/m2 CLR
04:25 55.3 °F /  12.9 °C 31.4 °F /  -0.3 °C 29.87in /  1011.4hPa ENE 2.0mph /  3.2km/h 10.0mph /  16.1km/h 40% 0.00in /  0mm WeatherDisplay:10.37 W/m2 CLR
04:30 55.3 °F /  12.9 °C 31.4 °F /  -0.3 °C 29.88in /  1011.7hPa Calm   4.0mph /  6.4km/h 40% 0.00in /  0mm WeatherDisplay:10.37 W/m2 CLR
04:35 55.1 °F /  12.8 °C 31.8 °F /  -0.1 °C 29.88in /  1011.7hPa Calm     41% 0.00in /  0mm WeatherDisplay:10.37 W/m2 CLR
04:40 54.9 °F /  12.7 °C 32.2 °F /  0.1 °C 29.88in /  1011.7hPa Calm     42% 0.00in /  0mm WeatherDisplay:10.37 W/m2 CLR
04:45 54.6 °F /  12.6 °C 31.9 °F /  -0.1 °C 29.88in /  1011.7hPa Calm     42% 0.00in /  0mm WeatherDisplay:10.37 W/m2 CLR
04:49 54.6 °F /  12.6 °C 31.9 °F /  -0.1 °C 29.88in /  1011.7hPa Calm     42% 0.00in /  0mm WeatherDisplay:10.37 W/m2 CLR
04:55 54.6 °F /  12.6 °C 31.9 °F /  -0.1 °C 29.88in /  1011.7hPa ENE 1.0mph /  1.6km/h 7.0mph /  11.3km/h 42% 0.00in /  0mm WeatherDisplay:10.37 W/m2 CLR
05:00 54.6 °F /  12.6 °C 31.9 °F /  -0.1 °C 29.88in /  1011.7hPa ENE 1.0mph /  1.6km/h 6.0mph /  9.7km/h 42% 0.00in /  0mm WeatherDisplay:10.37 W/m2 CLR
05:05 54.7 °F /  12.6 °C 32.0 °F /  0 °C 29.88in /  1011.7hPa ENE 0.8mph /  1.3km/h 8.1mph /  13km/h 42% 0.00in /  0mm WeatherDisplay:10.37 W/m2 CLR
05:10 54.7 °F /  12.6 °C 32.0 °F /  0 °C 29.88in /  1011.7hPa Calm   8.0mph /  12.9km/h 42% 0.00in /  0mm WeatherDisplay:10.37 W/m2 CLR
05:15 54.6 °F /  12.6 °C 31.9 °F /  -0.1 °C 29.89in /  1012.1hPa East 2.0mph /  3.2km/h 8.0mph /  12.9km/h 42% 0.00in /  0mm WeatherDisplay:10.37 W/m2 CLR
05:20 54.6 °F /  12.6 °C 31.9 °F /  -0.1 °C 29.89in /  1012.1hPa ENE 1.0mph /  1.6km/h 10.0mph /  16.1km/h 42% 0.00in /  0mm WeatherDisplay:10.37 W/m2 CLR
05:25 54.7 °F /  12.6 °C 32.0 °F /  0 °C 29.89in /  1012.1hPa ENE 1.0mph /  1.6km/h 10.0mph /  16.1km/h 42% 0.00in /  0mm WeatherDisplay:10.37 W/m2 CLR
05:30 54.7 °F /  12.6 °C 32.0 °F /  0 °C 29.89in /  1012.1hPa Calm   8.0mph /  12.9km/h 42% 0.00in /  0mm WeatherDisplay:10.37 W/m2 CLR
05:35 54.6 °F /  12.6 °C 31.9 °F /  -0.1 °C 29.89in /  1012.1hPa Calm     42% 0.00in /  0mm WeatherDisplay:10.37 W/m2 CLR
05:40 54.5 °F /  12.5 °C 31.8 °F /  -0.1 °C 29.89in /  1012.1hPa Calm     42% 0.00in /  0mm WeatherDisplay:10.37 W/m2 CLR
05:45 54.2 °F /  12.3 °C 32.2 °F /  0.1 °C 29.90in /  1012.4hPa Calm     43% 0.00in /  0mm WeatherDisplay:10.37 W/m2 CLR
05:50 54.1 °F /  12.3 °C 32.1 °F /  0.1 °C 29.90in /  1012.4hPa Calm     43% 0.00in /  0mm WeatherDisplay:10.37 W/m2 CLR
05:55 54.1 °F /  12.3 °C 32.1 °F /  0.1 °C 29.90in /  1012.4hPa Calm     43% 0.00in /  0mm WeatherDisplay:10.37 W/m2 CLR
05:58 54.1 °F /  12.3 °C 32.6 °F /  0.3 °C 29.90in /  1012.4hPa Calm     44% 0.00in /  0mm WeatherDisplay:10.37 W/m2 CLR
06:03 54.0 °F /  12.2 °C 32.6 °F /  0.3 °C 29.90in /  1012.4hPa Calm     44% 0.00in /  0mm WeatherDisplay:10.37 W/m2 CLR
06:08 53.9 °F /  12.2 °C 32.5 °F /  0.3 °C 29.90in /  1012.4hPa Calm     44% 0.00in /  0mm WeatherDisplay:10.37 W/m2 CLR
06:14 53.6 °F /  12 °C 32.2 °F /  0.1 °C 29.91in /  1012.8hPa Calm     44% 0.00in /  0mm WeatherDisplay:10.37 W/m2 CLR
06:19 53.3 °F /  11.8 °C 32.5 °F /  0.3 °C 29.91in /  1012.8hPa Calm     45% 0.00in /  0mm WeatherDisplay:10.37 W/m2 CLR
06:24 53.1 °F /  11.7 °C 32.3 °F /  0.2 °C 29.91in /  1012.8hPa Calm     45% 0.00in /  0mm WeatherDisplay:10.37 W/m2 CLR
06:29 53.1 °F /  11.7 °C 32.3 °F /  0.2 °C 29.92in /  1013.1hPa Calm     45% 0.00in /  0mm WeatherDisplay:10.37 W/m2 CLR
06:34 53.4 °F /  11.9 °C 33.1 °F /  0.6 °C 29.92in /  1013.1hPa Calm     46% 0.00in /  0mm WeatherDisplay:10.37 W/m2 CLR
06:39 53.7 °F /  12.1 °C 32.8 °F /  0.4 °C 29.92in /  1013.1hPa Calm     45% 0.00in /  0mm WeatherDisplay:10.37 W/m2 CLR
06:44 54.1 °F /  12.3 °C 32.6 °F /  0.3 °C 29.92in /  1013.1hPa Calm     44% 0.00in /  0mm WeatherDisplay:10.37 W/m2 CLR
06:49 54.4 °F /  12.4 °C 32.9 °F /  0.5 °C 29.92in /  1013.1hPa Calm     44% 0.00in /  0mm WeatherDisplay:10.37 W/m2 CLR
06:54 54.6 °F /  12.6 °C 33.1 °F /  0.6 °C 29.92in /  1013.1hPa Calm     44% 0.00in /  0mm WeatherDisplay:10.37 W/m2 CLR
07:00 54.8 °F /  12.7 °C 33.3 °F /  0.7 °C 29.93in /  1013.4hPa Calm     44% 0.00in /  0mm WeatherDisplay:10.37 W/m2 CLR
07:05 55.1 °F /  12.8 °C 33.6 °F /  0.9 °C 29.93in /  1013.4hPa Calm     44% 0.00in /  0mm WeatherDisplay:10.37 W/m2 CLR
07:10 55.4 °F /  13 °C 33.8 °F /  1 °C 29.93in /  1013.4hPa Calm     44% 0.00in /  0mm WeatherDisplay:10.37 W/m2 CLR
07:14 55.8 °F /  13.2 °C 33.6 °F /  0.9 °C 29.93in /  1013.4hPa Calm     43% 0.00in /  0mm WeatherDisplay:10.37 W/m2 CLR
07:20 56.2 °F /  13.4 °C 34.0 °F /  1.1 °C 29.93in /  1013.4hPa Calm     43% 0.00in /  0mm WeatherDisplay:10.37 W/m2 CLR
07:25 56.7 °F /  13.7 °C 33.8 °F /  1 °C 29.93in /  1013.4hPa Calm     42% 0.00in /  0mm WeatherDisplay:10.37 W/m2 CLR
07:30 57.1 °F /  13.9 °C 34.2 °F /  1.2 °C 29.93in /  1013.4hPa Calm     42% 0.00in /  0mm WeatherDisplay:10.37 W/m2 CLR
07:35 57.3 °F /  14.1 °C 33.8 °F /  1 °C 29.93in /  1013.4hPa Calm     41% 0.00in /  0mm WeatherDisplay:10.37 W/m2 CLR
07:40 57.7 °F /  14.3 °C 34.1 °F /  1.2 °C 29.93in /  1013.4hPa Calm     41% 0.00in /  0mm WeatherDisplay:10.37 W/m2 CLR
07:44 57.9 °F /  14.4 °C 33.7 °F /  0.9 °C 29.94in /  1013.8hPa Calm     40% 0.00in /  0mm WeatherDisplay:10.37 W/m2 CLR
07:50 58.3 °F /  14.6 °C 34.1 °F /  1.2 °C 29.94in /  1013.8hPa Calm     40% 0.00in /  0mm WeatherDisplay:10.37 W/m2 CLR
07:55 58.8 °F /  14.9 °C 33.9 °F /  1.1 °C 29.94in /  1013.8hPa Calm     39% 0.00in /  0mm WeatherDisplay:10.37 W/m2 CLR
08:00 59.0 °F /  15 °C 34.1 °F /  1.2 °C 29.94in /  1013.8hPa Calm     39% 0.00in /  0mm WeatherDisplay:10.37 W/m2 CLR
08:05 59.5 °F /  15.3 °C 33.9 °F /  1.1 °C 29.94in /  1013.8hPa Calm     38% 0.00in /  0mm WeatherDisplay:10.37 W/m2 CLR
08:10 59.9 °F /  15.5 °C 34.2 °F /  1.2 °C 29.94in /  1013.8hPa Calm     38% 0.00in /  0mm WeatherDisplay:10.37 W/m2 CLR
08:15 60.3 °F /  15.7 °C 34.6 °F /  1.4 °C 29.95in /  1014.1hPa Calm     38% 0.00in /  0mm WeatherDisplay:10.37 W/m2 CLR
08:19 60.7 °F /  15.9 °C 34.3 °F /  1.3 °C 29.95in /  1014.1hPa Calm     37% 0.00in /  0mm WeatherDisplay:10.37 W/m2 CLR
08:25 61.0 °F /  16.1 °C 34.5 °F /  1.4 °C 29.95in /  1014.1hPa Calm     37% 0.00in /  0mm WeatherDisplay:10.37 W/m2 CLR
08:30 61.2 °F /  16.2 °C 34.7 °F /  1.5 °C 29.95in /  1014.1hPa Calm     37% 0.00in /  0mm WeatherDisplay:10.37 W/m2 CLR
08:35 61.5 °F /  16.4 °C 34.3 °F /  1.3 °C 29.95in /  1014.1hPa Calm     36% 0.00in /  0mm WeatherDisplay:10.37 W/m2 CLR
08:40 62.0 °F /  16.7 °C 34.7 °F /  1.5 °C 29.95in /  1014.1hPa Calm     36% 0.00in /  0mm WeatherDisplay:10.37 W/m2 CLR
08:45 62.3 °F /  16.8 °C 34.3 °F /  1.3 °C 29.95in /  1014.1hPa Calm     35% 0.00in /  0mm WeatherDisplay:10.37 W/m2 CLR
08:50 62.3 °F /  16.8 °C 34.3 °F /  1.3 °C 29.95in /  1014.1hPa Calm     35% 0.00in /  0mm WeatherDisplay:10.37 W/m2 CLR
08:55 62.7 °F /  17.1 °C 33.9 °F /  1.1 °C 29.95in /  1014.1hPa Calm   7.0mph /  11.3km/h 34% 0.00in /  0mm WeatherDisplay:10.37 W/m2 CLR
09:00 63.1 °F /  17.3 °C 34.3 °F /  1.3 °C 29.94in /  1013.8hPa East 0.1mph /  0.2km/h 3.5mph /  5.6km/h 34% 0.00in /  0mm WeatherDisplay:10.37 W/m2 CLR
09:05 63.8 °F /  17.7 °C 34.8 °F /  1.6 °C 29.94in /  1013.8hPa East 2.0mph /  3.2km/h 7.0mph /  11.3km/h 34% 0.00in /  0mm WeatherDisplay:10.37 W/m2 CLR
09:10 63.9 °F /  17.7 °C 35.0 °F /  1.7 °C 29.94in /  1013.8hPa Calm   5.0mph /  8km/h 34% 0.00in /  0mm WeatherDisplay:10.37 W/m2 CLR
09:15 64.5 °F /  18.1 °C 34.0 °F /  1.1 °C 29.95in /  1014.1hPa Calm     32% 0.00in /  0mm WeatherDisplay:10.37 W/m2 CLR
09:20 64.8 °F /  18.2 °C 32.7 °F /  0.4 °C 29.95in /  1014.1hPa East 1.0mph /  1.6km/h 9.0mph /  14.5km/h 30% 0.00in /  0mm WeatherDisplay:10.37 W/m2 CLR
09:25 65.1 °F /  18.4 °C 33.7 °F /  0.9 °C 29.95in /  1014.1hPa Calm   9.0mph /  14.5km/h 31% 0.00in /  0mm WeatherDisplay:10.37 W/m2 CLR
09:30 65.6 °F /  18.7 °C 33.3 °F /  0.7 °C 29.95in /  1014.1hPa Calm   8.0mph /  12.9km/h 30% 0.00in /  0mm WeatherDisplay:10.37 W/m2 CLR
09:35 66.1 °F /  18.9 °C 33.7 °F /  0.9 °C 29.95in /  1014.1hPa East 1.0mph /  1.6km/h 5.0mph /  8km/h 30% 0.00in /  0mm WeatherDisplay:10.37 W/m2 CLR
09:40 66.3 °F /  19.1 °C 33.9 °F /  1.1 °C 29.95in /  1014.1hPa East 1.0mph /  1.6km/h 9.0mph /  14.5km/h 30% 0.00in /  0mm WeatherDisplay:10.37 W/m2 CLR
09:45 66.9 °F /  19.4 °C 34.5 °F /  1.4 °C 29.94in /  1013.8hPa ENE 2.0mph /  3.2km/h 6.0mph /  9.7km/h 30% 0.00in /  0mm WeatherDisplay:10.37 W/m2 CLR
09:50 67.5 °F /  19.7 °C 33.2 °F /  0.7 °C 29.94in /  1013.8hPa Calm   8.1mph /  13km/h 28% 0.00in /  0mm WeatherDisplay:10.37 W/m2 CLR
09:55 67.7 °F /  19.8 °C 32.5 °F /  0.3 °C 29.94in /  1013.8hPa ENE 1.0mph /  1.6km/h 9.0mph /  14.5km/h 27% 0.00in /  0mm WeatherDisplay:10.37 W/m2 CLR
09:59 67.7 °F /  19.8 °C 33.4 °F /  0.8 °C 29.94in /  1013.8hPa Calm     28% 0.00in /  0mm WeatherDisplay:10.37 W/m2 CLR
10:05 68.1 °F /  20.1 °C 32.8 °F /  0.4 °C 29.94in /  1013.8hPa Calm   9.0mph /  14.5km/h 27% 0.00in /  0mm WeatherDisplay:10.37 W/m2 CLR
10:10 68.8 °F /  20.4 °C 33.4 °F /  0.8 °C 29.94in /  1013.8hPa Calm     27% 0.00in /  0mm WeatherDisplay:10.37 W/m2 CLR
10:15 69.0 °F /  20.6 °C 32.7 °F /  0.4 °C 29.94in /  1013.8hPa Calm     26% 0.00in /  0mm WeatherDisplay:10.37 W/m2 CLR
10:20 69.6 °F /  20.9 °C 34.1 °F /  1.2 °C 29.94in /  1013.8hPa Calm   8.0mph /  12.9km/h 27% 0.00in /  0mm WeatherDisplay:10.37 W/m2 CLR
10:25 70.0 °F /  21.1 °C 34.4 °F /  1.3 °C 29.94in /  1013.8hPa ENE 2.0mph /  3.2km/h 12.0mph /  19.3km/h 27% 0.00in /  0mm WeatherDisplay:10.37 W/m2 CLR
10:30 70.2 °F /  21.2 °C 32.7 °F /  0.4 °C 29.94in /  1013.8hPa Calm   7.0mph /  11.3km/h 25% 0.00in /  0mm WeatherDisplay:10.37 W/m2 CLR
10:35 70.5 °F /  21.4 °C 33.0 °F /  0.6 °C 29.94in /  1013.8hPa Calm     25% 0.00in /  0mm WeatherDisplay:10.37 W/m2 CLR
10:40 70.7 °F /  21.5 °C 34.2 °F /  1.2 °C 29.94in /  1013.8hPa Calm     26% 0.00in /  0mm WeatherDisplay:10.37 W/m2 CLR
10:45 70.8 °F /  21.6 °C 34.2 °F /  1.2 °C 29.94in /  1013.8hPa ENE 1.0mph /  1.6km/h 6.0mph /  9.7km/h 26% 0.00in /  0mm WeatherDisplay:10.37 W/m2 CLR
10:50 71.6 °F /  22 °C 34.9 °F /  1.6 °C 29.94in /  1013.8hPa ENE 1.0mph /  1.6km/h 10.0mph /  16.1km/h 26% 0.00in /  0mm WeatherDisplay:10.37 W/m2 CLR
10:55 72.1 °F /  22.3 °C 34.3 °F /  1.3 °C 29.94in /  1013.8hPa ENE 2.0mph /  3.2km/h 8.0mph /  12.9km/h 25% 0.00in /  0mm WeatherDisplay:10.37 W/m2 CLR
11:00 72.3 °F /  22.4 °C 33.5 °F /  0.8 °C 29.94in /  1013.8hPa ENE 4.0mph /  6.4km/h 4.0mph /  6.4km/h 24% 0.00in /  0mm WeatherDisplay:10.37 W/m2 CLR
11:05 72.7 °F /  22.6 °C 33.8 °F /  1 °C 29.94in /  1013.8hPa East 2.0mph /  3.2km/h 12.0mph /  19.3km/h 24% 0.00in /  0mm WeatherDisplay:10.37 W/m2 CLR
11:10 73.2 °F /  22.9 °C 33.2 °F /  0.7 °C 29.94in /  1013.8hPa East 1.0mph /  1.6km/h 14.0mph /  22.5km/h 23% 0.00in /  0mm WeatherDisplay:10.37 W/m2 CLR
11:15 73.0 °F /  22.8 °C 34.1 °F /  1.2 °C 29.94in /  1013.8hPa East 2.0mph /  3.2km/h 15.0mph /  24.1km/h 24% 0.00in /  0mm WeatherDisplay:10.37 W/m2 CLR
11:20 73.3 °F /  22.9 °C 34.3 °F /  1.3 °C 29.94in /  1013.8hPa East 3.0mph /  4.8km/h 18.0mph /  29km/h 24% 0.00in /  0mm WeatherDisplay:10.37 W/m2 CLR
11:25 73.0 °F /  22.8 °C 33.0 °F /  0.6 °C 29.94in /  1013.8hPa East 1.0mph /  1.6km/h 12.0mph /  19.3km/h 23% 0.00in /  0mm WeatherDisplay:10.37 W/m2 CLR
11:30 73.4 °F /  23 °C 33.4 °F /  0.8 °C 29.94in /  1013.8hPa ESE 6.0mph /  9.7km/h 13.0mph /  20.9km/h 23% 0.00in /  0mm WeatherDisplay:10.37 W/m2 CLR
11:35 73.8 °F /  23.2 °C 33.7 °F /  0.9 °C 29.94in /  1013.8hPa ENE 5.5mph /  8.9km/h 8.1mph /  13km/h 23% 0.00in /  0mm WeatherDisplay:10.37 W/m2 CLR
11:40 74.0 °F /  23.3 °C 34.9 °F /  1.6 °C 29.94in /  1013.8hPa Calm   12.0mph /  19.3km/h 24% 0.00in /  0mm WeatherDisplay:10.37 W/m2 CLR
11:45 74.2 °F /  23.4 °C 35.1 °F /  1.7 °C 29.94in /  1013.8hPa Calm   10.0mph /  16.1km/h 24% 0.00in /  0mm WeatherDisplay:10.37 W/m2 CLR
11:50 74.3 °F /  23.5 °C 34.1 °F /  1.2 °C 29.94in /  1013.8hPa Calm   18.0mph /  29km/h 23% 0.00in /  0mm WeatherDisplay:10.37 W/m2 CLR
11:55 74.1 °F /  23.4 °C 33.9 °F /  1.1 °C 29.94in /  1013.8hPa NE 1.0mph /  1.6km/h 12.0mph /  19.3km/h 23% 0.00in /  0mm WeatherDisplay:10.37 W/m2 CLR
12:00 74.8 °F /  23.8 °C 34.5 °F /  1.4 °C 29.93in /  1013.4hPa NE 2.0mph /  3.2km/h 10.0mph /  16.1km/h 23% 0.00in /  0mm WeatherDisplay:10.37 W/m2 CLR
12:05 75.2 °F /  24 °C 33.7 °F /  0.9 °C 29.93in /  1013.4hPa Calm   12.0mph /  19.3km/h 22% 0.00in /  0mm WeatherDisplay:10.37 W/m2 CLR
12:10 74.3 °F /  23.5 °C 33.0 °F /  0.6 °C 29.93in /  1013.4hPa Calm     22% 0.00in /  0mm WeatherDisplay:10.37 W/m2 CLR
12:15 75.3 °F /  24.1 °C 33.8 °F /  1 °C 29.93in /  1013.4hPa Calm   12.0mph /  19.3km/h 22% 0.00in /  0mm WeatherDisplay:10.37 W/m2 CLR
12:20 75.3 °F /  24.1 °C 34.9 °F /  1.6 °C 29.93in /  1013.4hPa Calm     23% 0.00in /  0mm WeatherDisplay:10.37 W/m2 CLR
12:25 75.4 °F /  24.1 °C 33.9 °F /  1.1 °C 29.93in /  1013.4hPa Calm     22% 0.00in /  0mm WeatherDisplay:10.37 W/m2 CLR
12:30 75.6 °F /  24.2 °C 35.2 °F /  1.8 °C 29.92in /  1013.1hPa Calm   9.0mph /  14.5km/h 23% 0.00in /  0mm WeatherDisplay:10.37 W/m2 CLR
12:35 76.2 °F /  24.6 °C 34.6 °F /  1.4 °C 29.92in /  1013.1hPa NE 0.9mph /  1.4km/h 5.8mph /  9.3km/h 22% 0.00in /  0mm WeatherDisplay:10.37 W/m2 CLR
12:40 76.8 °F /  24.9 °C 35.1 °F /  1.7 °C 29.92in /  1013.1hPa ENE 5.0mph /  8km/h 12.0mph /  19.3km/h 22% 0.00in /  0mm WeatherDisplay:10.37 W/m2 CLR
12:45 76.7 °F /  24.8 °C 36.1 °F /  2.3 °C 29.92in /  1013.1hPa ENE 1.0mph /  1.6km/h 12.0mph /  19.3km/h 23% 0.00in /  0mm WeatherDisplay:10.37 W/m2 CLR
12:50 76.8 °F /  24.9 °C 33.9 °F /  1.1 °C 29.92in /  1013.1hPa East 2.0mph /  3.2km/h 10.0mph /  16.1km/h 21% 0.00in /  0mm WeatherDisplay:10.37 W/m2 CLR
12:55 76.9 °F /  24.9 °C 34.0 °F /  1.1 °C 29.92in /  1013.1hPa Calm     21% 0.00in /  0mm WeatherDisplay:10.37 W/m2 CLR
13:00 76.2 °F /  24.6 °C 34.6 °F /  1.4 °C 29.92in /  1013.1hPa Calm     22% 0.00in /  0mm WeatherDisplay:10.37 W/m2 CLR
13:05 77.0 °F /  25 °C 42.3 °F /  5.7 °C 29.92in /  1013.1hPa Calm     29% 0.00in /  0mm WeatherDisplay:10.37 W/m2 CLR
13:10 76.9 °F /  24.9 °C 36.2 °F /  2.3 °C 29.92in /  1013.1hPa East 1.0mph /  1.6km/h 5.0mph /  8km/h 23% 0.00in /  0mm WeatherDisplay:10.37 W/m2 CLR
13:15 77.1 °F /  25.1 °C 37.5 °F /  3.1 °C 29.92in /  1013.1hPa SE 2.0mph /  3.2km/h 6.0mph /  9.7km/h 24% 0.00in /  0mm WeatherDisplay:10.37 W/m2 CLR
13:20 76.5 °F /  24.7 °C 37.0 °F /  2.8 °C 29.92in /  1013.1hPa Calm     24% 0.00in /  0mm WeatherDisplay:10.37 W/m2 CLR
13:25 76.9 °F /  24.9 °C 34.0 °F /  1.1 °C 29.92in /  1013.1hPa SE 5.0mph /  8km/h 12.0mph /  19.3km/h 21% 0.00in /  0mm WeatherDisplay:10.37 W/m2 CLR
13:29 77.8 °F /  25.4 °C 33.5 °F /  0.8 °C 29.91in /  1012.8hPa South 5.7mph /  9.2km/h 6.9mph /  11.1km/h 20% 0.00in /  0mm WeatherDisplay:10.37 W/m2 CLR
13:35 78.2 °F /  25.7 °C 33.8 °F /  1 °C 29.91in /  1012.8hPa Calm   7.0mph /  11.3km/h 20% 0.00in /  0mm WeatherDisplay:10.37 W/m2 CLR
13:40 77.4 °F /  25.2 °C 33.1 °F /  0.6 °C 29.91in /  1012.8hPa Calm     20% 0.00in /  0mm WeatherDisplay:10.37 W/m2 CLR
13:45 77.4 °F /  25.2 °C 34.4 °F /  1.3 °C 29.91in /  1012.8hPa SE 6.3mph /  10.1km/h 11.5mph /  18.5km/h 21% 0.00in /  0mm WeatherDisplay:10.37 W/m2 CLR
13:50 78.1 °F /  25.6 °C 33.8 °F /  1 °C 29.91in /  1012.8hPa ESE 6.0mph /  9.7km/h 13.0mph /  20.9km/h 20% 0.00in /  0mm WeatherDisplay:10.37 W/m2 CLR
13:55 78.7 °F /  25.9 °C 34.2 °F /  1.2 °C 29.91in /  1012.8hPa Calm   5.0mph /  8km/h 20% 0.00in /  0mm WeatherDisplay:10.37 W/m2 CLR
13:58 78.4 °F /  25.8 °C 35.2 °F /  1.8 °C 29.90in /  1012.4hPa Calm     21% 0.00in /  0mm WeatherDisplay:10.37 W/m2 CLR
14:03 77.9 °F /  25.5 °C 34.8 °F /  1.6 °C 29.90in /  1012.4hPa Calm     21% 0.00in /  0mm WeatherDisplay:10.37 W/m2 CLR
14:08 78.7 °F /  25.9 °C 34.2 °F /  1.2 °C 29.90in /  1012.4hPa Calm     20% 0.00in /  0mm WeatherDisplay:10.37 W/m2 CLR
14:13 79.1 °F /  26.2 °C 34.6 °F /  1.4 °C 29.90in /  1012.4hPa NE 0.2mph /  0.3km/h 6.9mph /  11.1km/h 20% 0.00in /  0mm WeatherDisplay:10.37 W/m2 CLR
14:18 78.7 °F /  25.9 °C 34.2 °F /  1.2 °C 29.90in /  1012.4hPa NE 0.8mph /  1.3km/h 1.2mph /  1.9km/h 20% 0.00in /  0mm WeatherDisplay:10.37 W/m2 CLR
14:23 79.5 °F /  26.4 °C 34.9 °F /  1.6 °C 29.90in /  1012.4hPa Calm   2.3mph /  3.7km/h 20% 0.00in /  0mm WeatherDisplay:10.37 W/m2 CLR
14:29 79.4 °F /  26.3 °C 34.8 °F /  1.6 °C 29.90in /  1012.4hPa SE 2.4mph /  3.9km/h 8.1mph /  13km/h 20% 0.00in /  0mm WeatherDisplay:10.37 W/m2 CLR
14:34 79.3 °F /  26.3 °C 34.7 °F /  1.5 °C 29.90in /  1012.4hPa East 0.2mph /  0.3km/h 2.3mph /  3.7km/h 20% 0.00in /  0mm WeatherDisplay:10.37 W/m2 CLR
14:39 79.7 °F /  26.5 °C 35.1 °F /  1.7 °C 29.90in /  1012.4hPa Calm     20% 0.00in /  0mm WeatherDisplay:10.37 W/m2 CLR
14:44 80.3 °F /  26.8 °C 35.6 °F /  2 °C 29.89in /  1012.1hPa Calm     20% 0.00in /  0mm WeatherDisplay:10.37 W/m2 CLR
14:49 80.6 °F /  27 °C 34.5 °F /  1.4 °C 29.89in /  1012.1hPa SSE 2.4mph /  3.9km/h 14.0mph /  22.5km/h 19% 0.00in /  0mm WeatherDisplay:10.37 W/m2 CLR
14:54 81.1 °F /  27.3 °C 34.9 °F /  1.6 °C 29.89in /  1012.1hPa SE 4.5mph /  7.2km/h 10.0mph /  16.1km/h 19% 0.00in /  0mm WeatherDisplay:10.37 W/m2 CLR
14:59 81.1 °F /  27.3 °C 36.2 °F /  2.3 °C 29.89in /  1012.1hPa NNE 0.9mph /  1.4km/h 8.0mph /  12.9km/h 20% 0.00in /  0mm WeatherDisplay:10.37 W/m2 CLR
15:04 81.1 °F /  27.3 °C 34.9 °F /  1.6 °C 29.89in /  1012.1hPa SE 0.3mph /  0.5km/h   19% 0.00in /  0mm WeatherDisplay:10.37 W/m2 CLR
15:09 80.5 °F /  26.9 °C 34.4 °F /  1.3 °C 29.89in /  1012.1hPa SE 4.3mph /  6.9km/h 11.5mph /  18.5km/h 19% 0.00in /  0mm WeatherDisplay:10.37 W/m2 CLR
15:14 80.4 °F /  26.9 °C 34.3 °F /  1.3 °C 29.89in /  1012.1hPa ESE 5.1mph /  8.2km/h 6.0mph /  9.7km/h 19% 0.00in /  0mm WeatherDisplay:10.37 W/m2 CLR
15:20 80.9 °F /  27.2 °C 36.0 °F /  2.2 °C 29.89in /  1012.1hPa Calm   10.0mph /  16.1km/h 20% 0.00in /  0mm WeatherDisplay:10.37 W/m2 CLR
15:25 80.7 °F /  27.1 °C 34.6 °F /  1.4 °C 29.89in /  1012.1hPa ENE 1.0mph /  1.6km/h 9.0mph /  14.5km/h 19% 0.00in /  0mm WeatherDisplay:10.37 W/m2 CLR
15:30 81.4 °F /  27.4 °C 35.2 °F /  1.8 °C 29.88in /  1011.7hPa East 8.0mph /  12.9km/h 14.0mph /  22.5km/h 19% 0.00in /  0mm WeatherDisplay:10.37 W/m2 CLR
15:35 81.0 °F /  27.2 °C 34.9 °F /  1.6 °C 29.88in /  1011.7hPa ESE 3.0mph /  4.8km/h 13.0mph /  20.9km/h 19% 0.00in /  0mm WeatherDisplay:10.37 W/m2 CLR
15:40 81.1 °F /  27.3 °C 34.9 °F /  1.6 °C 29.88in /  1011.7hPa East 9.0mph /  14.5km/h 16.0mph /  25.7km/h 19% 0.00in /  0mm WeatherDisplay:10.37 W/m2 CLR
15:45 81.1 °F /  27.3 °C 34.9 °F /  1.6 °C 29.87in /  1011.4hPa East 2.5mph /  4km/h 9.2mph /  14.8km/h 19% 0.00in /  0mm WeatherDisplay:10.37 W/m2 CLR
15:50 80.5 °F /  26.9 °C 34.4 °F /  1.3 °C 29.87in /  1011.4hPa East 1.0mph /  1.6km/h 8.0mph /  12.9km/h 19% 0.00in /  0mm WeatherDisplay:10.37 W/m2 CLR
15:55 81.2 °F /  27.3 °C 35.0 °F /  1.7 °C 29.87in /  1011.4hPa ESE 3.0mph /  4.8km/h 12.0mph /  19.3km/h 19% 0.00in /  0mm WeatherDisplay:10.37 W/m2 CLR
16:00 81.1 °F /  27.3 °C 35.0 °F /  1.7 °C 29.87in /  1011.4hPa ESE 8.0mph /  12.9km/h 15.0mph /  24.1km/h 19% 0.00in /  0mm WeatherDisplay:10.37 W/m2 CLR
16:05 81.2 °F /  27.3 °C 35.0 °F /  1.7 °C 29.87in /  1011.4hPa ESE 5.0mph /  8km/h 14.0mph /  22.5km/h 19% 0.00in /  0mm WeatherDisplay:10.37 W/m2 CLR
16:10 81.2 °F /  27.3 °C 35.0 °F /  1.7 °C 29.87in /  1011.4hPa Calm   12.0mph /  19.3km/h 19% 0.00in /  0mm WeatherDisplay:10.37 W/m2 CLR
16:15 81.1 °F /  27.3 °C 34.9 °F /  1.6 °C 29.86in /  1011.1hPa ESE 3.0mph /  4.8km/h 15.0mph /  24.1km/h 19% 0.00in /  0mm WeatherDisplay:10.37 W/m2 CLR
16:20 80.9 °F /  27.2 °C 34.7 °F /  1.5 °C 29.86in /  1011.1hPa Calm   16.0mph /  25.7km/h 19% 0.00in /  0mm WeatherDisplay:10.37 W/m2 CLR
16:25 81.2 °F /  27.3 °C 35.0 °F /  1.7 °C 29.86in /  1011.1hPa East 6.9mph /  11.1km/h 10.4mph /  16.7km/h 19% 0.00in /  0mm WeatherDisplay:10.37 W/m2 CLR
16:30 80.9 °F /  27.2 °C 34.8 °F /  1.6 °C 29.87in /  1011.4hPa ESE 2.0mph /  3.2km/h 10.0mph /  16.1km/h 19% 0.00in /  0mm WeatherDisplay:10.37 W/m2 CLR
16:35 80.9 °F /  27.2 °C 34.8 °F /  1.6 °C 29.87in /  1011.4hPa ESE 5.0mph /  8km/h 14.0mph /  22.5km/h 19% 0.00in /  0mm WeatherDisplay:10.37 W/m2 CLR
16:40 80.7 °F /  27.1 °C 34.6 °F /  1.4 °C 29.87in /  1011.4hPa Calm   12.0mph /  19.3km/h 19% 0.00in /  0mm WeatherDisplay:10.37 W/m2 CLR
16:45 80.9 °F /  27.2 °C 33.4 °F /  0.8 °C 29.86in /  1011.1hPa Calm     18% 0.00in /  0mm WeatherDisplay:10.37 W/m2 CLR
16:50 81.6 °F /  27.6 °C 33.9 °F /  1.1 °C 29.86in /  1011.1hPa SE 7.0mph /  11.3km/h 13.0mph /  20.9km/h 18% 0.00in /  0mm WeatherDisplay:10.37 W/m2 CLR
16:55 81.3 °F /  27.4 °C 35.1 °F /  1.7 °C 29.86in /  1011.1hPa ESE 4.5mph /  7.2km/h 10.4mph /  16.7km/h 19% 0.00in /  0mm WeatherDisplay:10.37 W/m2 CLR
17:00 81.3 °F /  27.4 °C 33.7 °F /  0.9 °C 29.86in /  1011.1hPa SE 7.0mph /  11.3km/h 12.0mph /  19.3km/h 18% 0.00in /  0mm WeatherDisplay:10.37 W/m2 CLR
17:05 81.1 °F /  27.3 °C 33.6 °F /  0.9 °C 29.86in /  1011.1hPa South 6.0mph /  9.7km/h 12.0mph /  19.3km/h 18% 0.00in /  0mm WeatherDisplay:10.37 W/m2 CLR
17:09 80.6 °F /  27 °C 33.2 °F /  0.7 °C 29.86in /  1011.1hPa SSE 3.7mph /  6km/h 12.7mph /  20.4km/h 18% 0.00in /  0mm WeatherDisplay:10.37 W/m2 CLR
17:15 80.9 °F /  27.2 °C 34.8 °F /  1.6 °C 29.86in /  1011.1hPa SSE 6.0mph /  9.7km/h 9.0mph /  14.5km/h 19% 0.00in /  0mm WeatherDisplay:10.37 W/m2 CLR
17:20 80.8 °F /  27.1 °C 34.7 °F /  1.5 °C 29.86in /  1011.1hPa SE 3.0mph /  4.8km/h 7.0mph /  11.3km/h 19% 0.00in /  0mm WeatherDisplay:10.37 W/m2 CLR
17:25 80.8 °F /  27.1 °C 34.7 °F /  1.5 °C 29.86in /  1011.1hPa SE 6.0mph /  9.7km/h 13.0mph /  20.9km/h 19% 0.00in /  0mm WeatherDisplay:10.37 W/m2 CLR
17:30 80.2 °F /  26.8 °C 34.2 °F /  1.2 °C 29.85in /  1010.7hPa SE 6.0mph /  9.7km/h 12.0mph /  19.3km/h 19% 0.00in /  0mm WeatherDisplay:10.37 W/m2 CLR
17:35 79.9 °F /  26.6 °C 32.6 °F /  0.3 °C 29.85in /  1010.7hPa ESE 7.0mph /  11.3km/h 9.0mph /  14.5km/h 18% 0.00in /  0mm WeatherDisplay:10.37 W/m2 CLR
17:40 79.8 °F /  26.6 °C 33.9 °F /  1.1 °C 29.85in /  1010.7hPa ESE 5.0mph /  8km/h 12.0mph /  19.3km/h 19% 0.00in /  0mm WeatherDisplay:10.37 W/m2 CLR
17:45 79.8 °F /  26.6 °C 33.9 °F /  1.1 °C 29.85in /  1010.7hPa ESE 8.0mph /  12.9km/h 12.0mph /  19.3km/h 19% 0.00in /  0mm WeatherDisplay:10.37 W/m2 CLR
17:50 79.6 °F /  26.4 °C 33.7 °F /  0.9 °C 29.85in /  1010.7hPa South 10.2mph /  16.4km/h 12.0mph /  19.3km/h 19% 0.00in /  0mm WeatherDisplay:10.37 W/m2 CLR
17:55 79.4 °F /  26.3 °C 34.8 °F /  1.6 °C 29.85in /  1010.7hPa SE 6.0mph /  9.7km/h 16.0mph /  25.7km/h 20% 0.00in /  0mm WeatherDisplay:10.37 W/m2 CLR
18:00 79.2 °F /  26.2 °C 33.4 °F /  0.8 °C 29.85in /  1010.7hPa SE 7.0mph /  11.3km/h 14.0mph /  22.5km/h 19% 0.00in /  0mm WeatherDisplay:10.37 W/m2 CLR
18:05 79.1 °F /  26.2 °C 33.3 °F /  0.7 °C 29.85in /  1010.7hPa SE 8.0mph /  12.9km/h 16.0mph /  25.7km/h 19% 0.00in /  0mm WeatherDisplay:10.37 W/m2 CLR
18:10 78.8 °F /  26 °C 34.3 °F /  1.3 °C 29.85in /  1010.7hPa SE 1.0mph /  1.6km/h 15.0mph /  24.1km/h 20% 0.00in /  0mm WeatherDisplay:10.37 W/m2 CLR
18:15 78.7 °F /  25.9 °C 34.2 °F /  1.2 °C 29.85in /  1010.7hPa SE 5.2mph /  8.4km/h 9.2mph /  14.8km/h 20% 0.00in /  0mm WeatherDisplay:10.37 W/m2 CLR
18:20 78.5 °F /  25.8 °C 34.1 °F /  1.2 °C 29.85in /  1010.7hPa SE 6.0mph /  9.7km/h 9.0mph /  14.5km/h 20% 0.00in /  0mm WeatherDisplay:10.37 W/m2 CLR
18:25 78.3 °F /  25.7 °C 33.9 °F /  1.1 °C 29.85in /  1010.7hPa Calm   9.0mph /  14.5km/h 20% 0.00in /  0mm WeatherDisplay:10.37 W/m2 CLR
18:30 77.9 °F /  25.5 °C 32.3 °F /  0.2 °C 29.86in /  1011.1hPa Calm     19% 0.00in /  0mm WeatherDisplay:10.37 W/m2 CLR
18:35 77.6 °F /  25.3 °C 33.3 °F /  0.7 °C 29.86in /  1011.1hPa Calm     20% 0.00in /  0mm WeatherDisplay:10.37 W/m2 CLR
18:40 77.4 °F /  25.2 °C 33.2 °F /  0.7 °C 29.86in /  1011.1hPa Calm     20% 0.00in /  0mm WeatherDisplay:10.37 W/m2 CLR
18:44 77.2 °F /  25.1 °C 33.0 °F /  0.6 °C 29.86in /  1011.1hPa Calm     20% 0.00in /  0mm WeatherDisplay:10.37 W/m2 CLR
18:50 77.0 °F /  25 °C 32.8 °F /  0.4 °C 29.86in /  1011.1hPa Calm     20% 0.00in /  0mm WeatherDisplay:10.37 W/m2 CLR
18:55 76.7 °F /  24.8 °C 32.6 °F /  0.3 °C 29.86in /  1011.1hPa Calm     20% 0.00in /  0mm WeatherDisplay:10.37 W/m2 CLR
18:59 76.4 °F /  24.7 °C 33.6 °F /  0.9 °C 29.87in /  1011.4hPa Calm     21% 0.00in /  0mm WeatherDisplay:10.37 W/m2 CLR
19:05 76.1 °F /  24.5 °C 33.3 °F /  0.7 °C 29.87in /  1011.4hPa Calm     21% 0.00in /  0mm WeatherDisplay:10.37 W/m2 CLR
19:10 75.8 °F /  24.3 °C 33.1 °F /  0.6 °C 29.87in /  1011.4hPa Calm     21% 0.00in /  0mm WeatherDisplay:10.37 W/m2 CLR
19:15 75.6 °F /  24.2 °C 32.9 °F /  0.5 °C 29.87in /  1011.4hPa Calm     21% 0.00in /  0mm WeatherDisplay:10.37 W/m2 CLR
19:20 75.4 °F /  24.1 °C 33.9 °F /  1.1 °C 29.87in /  1011.4hPa Calm     22% 0.00in /  0mm WeatherDisplay:10.37 W/m2 CLR
19:24 75.0 °F /  23.9 °C 33.6 °F /  0.9 °C 29.87in /  1011.4hPa Calm     22% 0.00in /  0mm WeatherDisplay:10.37 W/m2 CLR
19:30 74.7 °F /  23.7 °C 33.3 °F /  0.7 °C 29.88in /  1011.7hPa Calm     22% 0.00in /  0mm WeatherDisplay:10.37 W/m2 CLR
19:35 74.4 °F /  23.6 °C 34.2 °F /  1.2 °C 29.88in /  1011.7hPa Calm     23% 0.00in /  0mm WeatherDisplay:10.37 W/m2 CLR
19:40 74.2 °F /  23.4 °C 34.0 °F /  1.1 °C 29.88in /  1011.7hPa Calm     23% 0.00in /  0mm WeatherDisplay:10.37 W/m2 CLR
19:45 73.8 °F /  23.2 °C 33.7 °F /  0.9 °C 29.89in /  1012.1hPa Calm     23% 0.00in /  0mm WeatherDisplay:10.37 W/m2 CLR
19:50 73.7 °F /  23.2 °C 33.6 °F /  0.9 °C 29.89in /  1012.1hPa Calm     23% 0.00in /  0mm WeatherDisplay:10.37 W/m2 CLR
19:55 73.5 °F /  23.1 °C 33.4 °F /  0.8 °C 29.89in /  1012.1hPa Calm     23% 0.00in /  0mm WeatherDisplay:10.37 W/m2 CLR
20:00 73.3 °F /  22.9 °C 33.2 °F /  0.7 °C 29.90in /  1012.4hPa Calm     23% 0.00in /  0mm WeatherDisplay:10.37 W/m2 CLR
20:05 73.2 °F /  22.9 °C 33.2 °F /  0.7 °C 29.90in /  1012.4hPa Calm     23% 0.00in /  0mm WeatherDisplay:10.37 W/m2 CLR
20:10 73.3 °F /  22.9 °C 33.2 °F /  0.7 °C 29.90in /  1012.4hPa Calm     23% 0.00in /  0mm WeatherDisplay:10.37 W/m2 CLR
20:15 73.2 °F /  22.9 °C 33.2 °F /  0.7 °C 29.91in /  1012.8hPa Calm     23% 0.00in /  0mm WeatherDisplay:10.37 W/m2 CLR
20:20 73.0 °F /  22.8 °C 33.0 °F /  0.6 °C 29.91in /  1012.8hPa Calm     23% 0.00in /  0mm WeatherDisplay:10.37 W/m2 CLR
20:25 72.5 °F /  22.5 °C 33.7 °F /  0.9 °C 29.91in /  1012.8hPa Calm     24% 0.00in /  0mm WeatherDisplay:10.37 W/m2 CLR
20:30 71.9 °F /  22.2 °C 33.1 °F /  0.6 °C 29.91in /  1012.8hPa Calm     24% 0.00in /  0mm WeatherDisplay:10.37 W/m2 CLR
20:35 71.3 °F /  21.8 °C 33.6 °F /  0.9 °C 29.91in /  1012.8hPa Calm     25% 0.00in /  0mm WeatherDisplay:10.37 W/m2 CLR
20:40 70.9 °F /  21.6 °C 33.3 °F /  0.7 °C 29.91in /  1012.8hPa Calm     25% 0.00in /  0mm WeatherDisplay:10.37 W/m2 CLR
20:45 70.6 °F /  21.4 °C 34.0 °F /  1.1 °C 29.91in /  1012.8hPa Calm     26% 0.00in /  0mm WeatherDisplay:10.37 W/m2 CLR
20:50 70.3 °F /  21.3 °C 33.8 °F /  1 °C 29.91in /  1012.8hPa Calm     26% 0.00in /  0mm WeatherDisplay:10.37 W/m2 CLR
20:55 70.0 °F /  21.1 °C 34.4 °F /  1.3 °C 29.91in /  1012.8hPa Calm     27% 0.00in /  0mm WeatherDisplay:10.37 W/m2 CLR
21:00 69.6 °F /  20.9 °C 34.1 °F /  1.2 °C 29.92in /  1013.1hPa Calm     27% 0.00in /  0mm WeatherDisplay:10.37 W/m2 CLR
21:05 69.2 °F /  20.7 °C 34.6 °F /  1.4 °C 29.92in /  1013.1hPa Calm     28% 0.00in /  0mm WeatherDisplay:10.37 W/m2 CLR
21:10 68.5 °F /  20.3 °C 35.0 °F /  1.7 °C 29.92in /  1013.1hPa Calm     29% 0.00in /  0mm WeatherDisplay:10.37 W/m2 CLR
21:15 68.1 °F /  20.1 °C 34.7 °F /  1.5 °C 29.92in /  1013.1hPa Calm     29% 0.00in /  0mm WeatherDisplay:10.37 W/m2 CLR
21:20 67.9 °F /  19.9 °C 35.3 °F /  1.8 °C 29.92in /  1013.1hPa Calm     30% 0.00in /  0mm WeatherDisplay:10.37 W/m2 CLR
21:25 67.6 °F /  19.8 °C 35.0 °F /  1.7 °C 29.92in /  1013.1hPa Calm     30% 0.00in /  0mm WeatherDisplay:10.37 W/m2 CLR
21:30 67.3 °F /  19.6 °C 35.6 °F /  2 °C 29.92in /  1013.1hPa Calm     31% 0.00in /  0mm WeatherDisplay:10.37 W/m2 CLR
21:35 66.8 °F /  19.3 °C 35.2 °F /  1.8 °C 29.92in /  1013.1hPa Calm     31% 0.00in /  0mm WeatherDisplay:10.37 W/m2 CLR
21:40 66.4 °F /  19.1 °C 34.8 °F /  1.6 °C 29.92in /  1013.1hPa Calm     31% 0.00in /  0mm WeatherDisplay:10.37 W/m2 CLR
21:45 65.9 °F /  18.8 °C 33.6 °F /  0.9 °C 29.93in /  1013.4hPa Calm     30% 0.00in /  0mm WeatherDisplay:10.37 W/m2 CLR
21:50 65.6 °F /  18.7 °C 33.3 °F /  0.7 °C 29.93in /  1013.4hPa Calm     30% 0.00in /  0mm WeatherDisplay:10.37 W/m2 CLR
21:55 65.3 °F /  18.5 °C 33.9 °F /  1.1 °C 29.93in /  1013.4hPa Calm     31% 0.00in /  0mm WeatherDisplay:10.37 W/m2 CLR
22:00 65.1 °F /  18.4 °C 33.7 °F /  0.9 °C 29.93in /  1013.4hPa Calm     31% 0.00in /  0mm WeatherDisplay:10.37 W/m2 CLR
22:05 64.9 °F /  18.3 °C 33.5 °F /  0.8 °C 29.93in /  1013.4hPa Calm     31% 0.00in /  0mm WeatherDisplay:10.37 W/m2 CLR
22:10 64.7 °F /  18.2 °C 33.3 °F /  0.7 °C 29.93in /  1013.4hPa Calm     31% 0.00in /  0mm WeatherDisplay:10.37 W/m2 CLR
22:15 64.5 °F /  18.1 °C 34.0 °F /  1.1 °C 29.93in /  1013.4hPa Calm     32% 0.00in /  0mm WeatherDisplay:10.37 W/m2 CLR
22:20 64.2 °F /  17.9 °C 33.7 °F /  0.9 °C 29.93in /  1013.4hPa Calm     32% 0.00in /  0mm WeatherDisplay:10.37 W/m2 CLR
22:25 64.0 °F /  17.8 °C 34.3 °F /  1.3 °C 29.93in /  1013.4hPa Calm     33% 0.00in /  0mm WeatherDisplay:10.37 W/m2 CLR
22:30 63.7 °F /  17.6 °C 34.0 °F /  1.1 °C 29.93in /  1013.4hPa Calm     33% 0.00in /  0mm WeatherDisplay:10.37 W/m2 CLR
22:35 63.4 °F /  17.4 °C 34.6 °F /  1.4 °C 29.93in /  1013.4hPa Calm     34% 0.00in /  0mm WeatherDisplay:10.37 W/m2 CLR
22:40 63.3 °F /  17.4 °C 34.4 °F /  1.3 °C 29.93in /  1013.4hPa Calm     34% 0.00in /  0mm WeatherDisplay:10.37 W/m2 CLR
22:45 63.1 °F /  17.3 °C 34.3 °F /  1.3 °C 29.94in /  1013.8hPa Calm     34% 0.00in /  0mm WeatherDisplay:10.37 W/m2 CLR
22:50 62.9 °F /  17.2 °C 33.3 °F /  0.7 °C 29.94in /  1013.8hPa Calm     33% 0.00in /  0mm WeatherDisplay:10.37 W/m2 CLR
22:55 62.7 °F /  17.1 °C 33.9 °F /  1.1 °C 29.94in /  1013.8hPa Calm     34% 0.00in /  0mm WeatherDisplay:10.37 W/m2 CLR
23:00 62.4 °F /  16.9 °C 32.9 °F /  0.5 °C 29.94in /  1013.8hPa Calm     33% 0.00in /  0mm WeatherDisplay:10.37 W/m2 CLR
23:05 62.3 °F /  16.8 °C 33.5 °F /  0.8 °C 29.94in /  1013.8hPa Calm     34% 0.00in /  0mm WeatherDisplay:10.37 W/m2 CLR
Youngtown, Arizona, USA
Compliments of Weather Underground - 3.75 mb